Time;durP1;ratioP1;P1;durP2;ratioP2;P2;SDS_P1;SDS_P2;PMS_P1;PMS_P2;Temp;Humidity;BMP_temperature;BMP_pressure;BME280_temperature;BME280_humidity;BME280_pressure;Samples;Min_cycle;Max_cycle;Signal;HPM_P1;HPM_P2
2023/09/25 00:04:46;;;;;;;8.88;1.50;;;;;;;14.51;78.77;102377.44;10417793;28;20501;-67
2023/09/25 00:10:08;;;;;;;2.50;1.30;;;;;;;14.49;78.48;102392.25;10419646;28;20063;-67
2023/09/25 00:15:30;;;;;;;3.13;1.20;;;;;;;14.41;78.91;102381.09;10417455;28;20096;-67
2023/09/25 00:20:53;;;;;;;6.07;1.60;;;;;;;14.38;78.60;102375.97;10418567;28;20049;-68
2023/09/25 00:26:15;;;;;;;3.05;1.25;;;;;;;14.35;79.10;102381.25;10425825;28;20045;-66
2023/09/25 00:31:37;;;;;;;1.83;1.23;;;;;;;14.29;79.46;102376.16;10427793;28;20161;-67
2023/09/25 00:36:59;;;;;;;2.72;1.30;;;;;;;14.31;79.29;102371.78;10434377;28;20052;-65
2023/09/25 00:42:21;;;;;;;2.88;1.30;;;;;;;14.28;78.84;102373.59;10430719;28;20076;-67
2023/09/25 00:47:43;;;;;;;3.47;1.60;;;;;;;14.14;79.59;102366.03;10426978;28;20128;-67
2023/09/25 00:53:08;;;;;;;2.70;1.60;;;;;;;14.11;79.54;102374.78;10438117;28;20106;-68
2023/09/25 00:58:29;;;;;;;6.18;1.40;;;;;;;14.09;79.99;102360.91;10418503;28;20049;-67
2023/09/25 01:03:51;;;;;;;3.08;1.20;;;;;;;14.07;80.48;102367.03;10428765;28;20469;-67
2023/09/25 01:09:13;;;;;;;1.60;1.27;;;;;;;14.02;81.17;102369.75;10426809;28;20057;-67
2023/09/25 01:14:35;;;;;;;1.58;1.40;;;;;;;13.98;81.06;102362.00;10428356;28;20052;-67
2023/09/25 01:19:56;;;;;;;3.20;1.45;;;;;;;13.92;80.88;102367.31;10423394;28;20076;-67
2023/09/25 01:25:19;;;;;;;3.70;1.60;;;;;;;13.83;81.19;102359.69;10456739;28;20048;-67
2023/09/25 01:30:42;;;;;;;3.20;1.60;;;;;;;13.79;81.35;102350.25;10443187;28;20053;-67
2023/09/25 01:36:04;;;;;;;7.03;1.67;;;;;;;13.79;81.27;102350.25;10437516;28;20393;-67
2023/09/25 01:41:26;;;;;;;3.80;1.40;;;;;;;13.76;81.04;102347.69;10426794;28;20046;-67
2023/09/25 01:46:48;;;;;;;2.40;1.50;;;;;;;13.70;81.01;102355.59;10448146;28;20029;-67
2023/09/25 01:52:09;;;;;;;2.80;1.50;;;;;;;13.71;80.75;102345.19;10442590;28;20049;-67
2023/09/25 01:57:32;;;;;;;2.67;1.20;;;;;;;13.64;81.48;102337.53;10423375;28;20056;-67
2023/09/25 02:02:54;;;;;;;2.00;1.30;;;;;;;13.61;81.71;102347.97;10437335;28;20512;-67
2023/09/25 02:08:16;;;;;;;5.07;1.50;;;;;;;13.60;81.85;102338.47;10440677;28;20049;-67
2023/09/25 02:13:37;;;;;;;2.35;1.50;;;;;;;13.54;81.98;102334.22;10421330;28;20057;-67
2023/09/25 02:18:59;;;;;;;1.60;1.50;;;;;;;13.51;82.14;102334.28;10436664;28;20053;-67
2023/09/25 02:24:21;;;;;;;1.60;1.40;;;;;;;13.58;81.89;102337.63;10417640;28;20049;-67
2023/09/25 02:29:43;;;;;;;2.30;1.55;;;;;;;13.56;82.19;102347.19;10425258;28;20207;-67
2023/09/25 02:35:07;;;;;;;3.92;1.70;;;;;;;13.56;82.22;102344.59;10422524;28;20041;-67
2023/09/25 02:40:29;;;;;;;4.03;1.60;;;;;;;13.56;82.08;102336.78;10429640;28;20051;-67
2023/09/25 02:45:51;;;;;;;2.28;1.50;;;;;;;13.48;82.77;102333.50;10428949;28;20047;-67
2023/09/25 02:51:13;;;;;;;2.97;1.58;;;;;;;13.45;82.67;102341.31;10423028;28;20586;-67
2023/09/25 02:56:35;;;;;;;2.45;1.58;;;;;;;13.46;82.62;102337.84;10447010;28;20057;-67
2023/09/25 03:01:56;;;;;;;5.13;1.80;;;;;;;13.46;82.58;102335.25;10430154;28;20048;-65
2023/09/25 03:07:18;;;;;;;2.25;1.67;;;;;;;13.45;82.54;102328.31;10431046;28;20053;-67
2023/09/25 03:12:40;;;;;;;1.80;1.70;;;;;;;13.47;83.03;102347.34;10433476;28;20057;-67
2023/09/25 03:18:02;;;;;;;3.30;1.67;;;;;;;13.46;83.13;102341.28;10430793;28;20043;-67
2023/09/25 03:23:24;;;;;;;2.05;1.48;;;;;;;13.45;83.26;102354.31;10437868;28;20045;-67
2023/09/25 03:28:46;;;;;;;2.15;1.55;;;;;;;13.44;82.87;102352.63;10439947;28;20041;-68
2023/09/25 03:34:08;;;;;;;3.03;1.70;;;;;;;13.50;82.36;102358.56;10432261;28;20063;-67
2023/09/25 03:39:30;;;;;;;2.35;1.50;;;;;;;13.49;82.54;102361.19;10429987;28;20143;-67
2023/09/25 03:44:51;;;;;;;2.00;1.30;;;;;;;13.50;82.18;102355.09;10426905;28;20092;-67
2023/09/25 03:50:13;;;;;;;2.45;1.63;;;;;;;13.46;82.70;102356.06;10444667;28;20608;-67
2023/09/25 03:55:35;;;;;;;2.33;1.70;;;;;;;13.44;82.95;102344.81;10422924;28;20037;-67
2023/09/25 04:00:57;;;;;;;5.30;2.00;;;;;;;13.38;83.02;102342.31;10435455;28;20044;-67
2023/09/25 04:06:19;;;;;;;5.38;2.00;;;;;;;13.31;83.05;102345.91;10424278;28;20049;-67
2023/09/25 04:11:41;;;;;;;2.10;1.80;;;;;;;13.35;83.32;102352.78;10425835;28;20583;-67
2023/09/25 04:17:02;;;;;;;5.13;1.65;;;;;;;13.28;83.46;102344.22;10431312;28;20041;-68
2023/09/25 04:22:25;;;;;;;5.10;1.60;;;;;;;13.28;83.69;102351.16;10429649;28;20051;-67
2023/09/25 04:27:54;;;;;;;3.88;1.75;;;;;;;13.27;83.51;102344.25;10426170;28;20242;-67
2023/09/25 04:33:15;;;;;;;2.50;1.65;;;;;;;13.26;83.17;102337.34;10439433;28;20061;-67
2023/09/25 04:38:37;;;;;;;2.13;1.60;;;;;;;13.25;83.76;102331.28;10429037;28;20065;-67
2023/09/25 04:43:59;;;;;;;5.18;1.42;;;;;;;13.28;83.14;102327.75;10442251;28;20045;-66
2023/09/25 04:49:20;;;;;;;1.52;1.35;;;;;;;13.20;83.60;102321.84;10422972;28;20060;-67
2023/09/25 04:54:42;;;;;;;2.92;1.77;;;;;;;13.27;83.85;102326.03;10414260;28;20500;-67
2023/09/25 05:05:35;;;;;;;3.50;1.60;;;;;;;13.29;83.56;102327.75;10425137;28;20551;-67
2023/09/25 05:10:58;;;;;;;3.17;1.52;;;;;;;13.29;83.25;102325.16;10438690;28;20523;-67
2023/09/25 05:16:19;;;;;;;9.45;1.60;;;;;;;13.30;83.46;102323.38;10441021;28;20040;-67
2023/09/25 05:21:41;;;;;;;2.58;1.42;;;;;;;13.29;83.50;102324.28;10442363;28;20053;-67
2023/09/25 05:27:03;;;;;;;3.03;1.75;;;;;;;13.32;83.88;102314.69;10416820;28;20476;-67
2023/09/25 05:32:25;;;;;;;4.35;1.90;;;;;;;13.32;83.23;102316.41;10424345;28;20048;-67
2023/09/25 05:37:48;;;;;;;4.10;1.60;;;;;;;13.38;83.52;102309.38;10434096;28;20041;-67
2023/09/25 05:43:10;;;;;;;2.20;1.45;;;;;;;13.36;83.30;102305.09;10430725;28;20127;-67
2023/09/25 05:48:32;;;;;;;4.15;1.75;;;;;;;13.41;83.42;102306.72;10434908;28;20045;-67
2023/09/25 05:53:54;;;;;;;2.30;1.50;;;;;;;13.46;83.14;102314.44;10448022;28;20040;-67
2023/09/25 05:59:15;;;;;;;2.63;1.70;;;;;;;13.48;82.96;102307.47;10433124;28;20094;-67
2023/09/25 06:04:38;;;;;;;3.58;1.83;;;;;;;13.50;83.01;102323.88;10434527;28;20131;-67
2023/09/25 06:10:01;;;;;;;3.15;1.73;;;;;;;13.57;82.74;102326.34;10426280;28;20113;-67
2023/09/25 06:15:24;;;;;;;3.60;1.80;;;;;;;13.66;82.33;102325.34;10428625;28;20032;-67
2023/09/25 06:20:48;;;;;;;5.47;1.73;;;;;;;13.75;82.47;102327.78;10432896;28;20057;-67
2023/09/25 06:26:10;;;;;;;1.98;1.52;;;;;;;13.83;82.69;102336.28;10446020;28;20128;-67
2023/09/25 06:31:32;;;;;;;6.25;1.70;;;;;;;13.85;82.36;102319.75;10442315;28;20057;-67
2023/09/25 06:37:10;;;;;;;2.92;1.48;;;;;;;13.98;81.95;102325.56;10427171;28;20136;-67
2023/09/25 06:42:31;;;;;;;3.55;1.50;;;;;;;14.08;81.48;102342.75;10424538;28;20044;-67
2023/09/25 06:47:53;;;;;;;3.05;2.05;;;;;;;14.16;81.17;102335.59;10432013;28;20052;-66
2023/09/25 06:53:15;;;;;;;2.33;1.50;;;;;;;14.23;81.13;102342.41;10424167;28;20060;-67
2023/09/25 06:58:37;;;;;;;2.47;1.70;;;;;;;14.35;80.45;102336.97;10421528;28;20118;-67
2023/09/25 07:03:58;;;;;;;2.08;1.75;;;;;;;14.43;80.23;102335.06;10401440;28;20052;-67
2023/09/25 07:09:22;;;;;;;2.88;1.90;;;;;;;14.51;80.33;102348.78;10424276;28;20048;-67
2023/09/25 07:14:56;;;;;;;2.95;1.50;;;;;;;14.57;80.39;102346.06;10414218;28;20057;-67
2023/09/25 07:20:19;;;;;;;2.92;1.60;;;;;;;14.63;80.13;102348.50;10410631;28;20408;-67
2023/09/25 07:25:40;;;;;;;1.50;1.40;;;;;;;14.65;80.21;102344.13;10419797;28;20837;-67
2023/09/25 07:31:02;;;;;;;3.78;1.58;;;;;;;14.76;79.91;102349.94;10430047;28;20048;-67
2023/09/25 07:36:24;;;;;;;2.70;1.67;;;;;;;14.85;80.30;102347.13;10427987;28;20053;-67
2023/09/25 07:41:46;;;;;;;5.70;1.90;;;;;;;14.94;80.56;102349.50;10430718;28;20056;-67
2023/09/25 07:47:12;;;;;;;1.70;1.50;;;;;;;15.03;79.80;102354.50;10423382;28;20697;-67
2023/09/25 07:52:34;;;;;;;2.35;1.70;;;;;;;15.13;79.51;102343.88;10429835;28;20056;-67
2023/09/25 07:57:56;;;;;;;2.83;1.70;;;;;;;15.19;79.68;102339.38;10427313;28;20037;-67
2023/09/25 08:03:22;;;;;;;3.40;1.40;;;;;;;15.32;79.29;102345.13;10445641;28;20049;-67
2023/09/25 08:08:45;;;;;;;2.05;1.42;;;;;;;15.39;79.33;102351.91;10429570;28;20140;-67
2023/09/25 08:14:06;;;;;;;2.38;1.63;;;;;;;15.45;79.28;102355.25;10430959;28;20060;-68
2023/09/25 08:19:28;;;;;;;2.47;1.50;;;;;;;15.56;79.11;102349.75;10426901;28;20037;-67
2023/09/25 08:24:49;;;;;;;1.73;1.50;;;;;;;15.64;78.91;102345.19;10429717;28;20053;-67
2023/09/25 08:30:12;;;;;;;3.22;1.55;;;;;;;15.86;78.12;102348.91;10434985;28;20060;-67
2023/09/25 08:35:34;;;;;;;1.60;1.38;;;;;;;15.98;77.99;102338.16;10437493;28;20048;-67
2023/09/25 08:40:55;;;;;;;4.15;1.30;;;;;;;16.05;78.46;102337.06;10423980;28;20041;-67
2023/09/25 08:46:18;;;;;;;1.92;1.00;;;;;;;16.16;78.16;102337.63;10416559;28;20049;-67
2023/09/25 08:51:41;;;;;;;3.22;1.35;;;;;;;16.29;77.94;102339.00;10436891;28;20053;-67
2023/09/25 08:57:05;;;;;;;3.65;1.50;;;;;;;16.46;76.27;102339.34;10423778;28;20048;-67
2023/09/25 09:02:26;;;;;;;2.45;1.40;;;;;;;16.62;76.03;102342.38;10426481;28;20044;-67
2023/09/25 09:08:03;;;;;;;1.30;1.20;;;;;;;16.75;74.40;102336.72;10438924;28;20052;-67
2023/09/25 09:13:25;;;;;;;2.30;1.30;;;;;;;16.93;74.23;102328.31;10435666;28;20051;-67
2023/09/25 09:18:47;;;;;;;4.00;1.30;;;;;;;17.08;75.26;102338.25;10441596;28;20127;-68
2023/09/25 09:24:20;;;;;;;4.75;1.13;;;;;;;17.22;72.79;102329.09;10418639;28;20140;-67
2023/09/25 09:29:45;;;;;;;5.80;1.30;;;;;;;17.41;73.38;102306.63;10424441;28;20137;-67
2023/09/25 09:35:08;;;;;;;4.47;1.13;;;;;;;17.58;71.33;102312.19;10425330;28;20047;-67
2023/09/25 09:40:30;;;;;;;3.00;1.55;;;;;;;17.72;71.71;102289.84;10421720;28;20489;-67
2023/09/25 09:45:52;;;;;;;2.72;1.30;;;;;;;17.81;71.76;102299.13;10423699;28;20059;-67
2023/09/25 09:51:17;;;;;;;4.35;1.30;;;;;;;17.94;70.02;102297.75;10424109;28;20068;-67
2023/09/25 09:56:39;;;;;;;3.72;1.20;;;;;;;18.08;71.82;102292.84;10423680;28;20055;-67
2023/09/25 10:02:03;;;;;;;1.13;1.00;;;;;;;18.21;70.42;102291.47;10419577;28;21888;-67
2023/09/25 10:07:26;;;;;;;2.97;1.33;;;;;;;18.28;69.06;102287.69;10420265;28;20037;-67
2023/09/25 10:12:50;;;;;;;3.77;1.47;;;;;;;18.41;69.11;102286.34;10429716;28;20059;-67
2023/09/25 10:18:12;;;;;;;2.03;1.30;;;;;;;18.59;69.93;102279.50;10426108;28;20098;-68
2023/09/25 10:23:34;;;;;;;1.38;1.10;;;;;;;18.83;70.90;102278.53;10423105;28;20057;-68
2023/09/25 10:29:13;;;;;;;2.15;1.40;;;;;;;18.94;67.30;102277.19;10423433;28;20083;-65
2023/09/25 10:34:39;;;;;;;4.88;1.45;;;;;;;18.98;67.73;102272.66;10436339;28;20132;-65
2023/09/25 10:40:01;;;;;;;;;;;;;;;18.92;65.64;102271.13;10420302;28;20159;-65
2023/09/25 10:45:23;;;;;;;1.95;1.38;;;;;;;18.98;68.97;102263.03;10437998;28;20276;-65
2023/09/25 10:50:45;;;;;;;2.45;1.13;;;;;;;18.95;69.80;102255.25;10406084;28;20056;-66
2023/09/25 10:56:08;;;;;;;3.55;1.10;;;;;;;19.03;69.72;102263.69;10420201;28;20128;-66
2023/09/25 11:01:32;;;;;;;2.05;1.33;;;;;;;19.11;69.78;102252.88;10417583;28;20041;-66
2023/09/25 11:06:54;;;;;;;3.45;1.20;;;;;;;19.16;69.87;102250.03;10445891;28;20080;-66
2023/09/25 11:12:15;;;;;;;3.17;1.15;;;;;;;19.18;71.70;102246.44;10428508;28;20544;-66
2023/09/25 11:17:38;;;;;;;8.43;1.30;;;;;;;19.23;71.33;102260.19;10428562;28;20041;-66
2023/09/25 11:23:05;;;;;;;5.38;1.63;;;;;;;19.32;68.05;102261.63;10440036;28;20056;-66
2023/09/25 11:28:40;;;;;;;2.00;1.40;;;;;;;19.42;69.18;102269.03;10428697;28;20470;-66
2023/09/25 11:34:02;;;;;;;2.40;1.10;;;;;;;19.45;67.29;102268.88;10443944;28;20045;-66
2023/09/25 11:39:24;;;;;;;1.75;1.00;;;;;;;19.51;69.40;102263.38;10439034;28;20436;-66
2023/09/25 11:44:46;;;;;;;6.18;1.35;;;;;;;19.54;69.71;102272.91;10430005;28;20413;-66
2023/09/25 11:50:08;;;;;;;1.83;1.00;;;;;;;19.59;67.76;102276.19;10437116;28;20136;-66
2023/09/25 11:55:30;;;;;;;7.72;1.50;;;;;;;19.68;69.85;102270.50;10425849;28;20063;-66
2023/09/25 12:00:51;;;;;;;3.95;1.25;;;;;;;19.80;68.35;102264.69;10428245;28;20041;-67
2023/09/25 12:06:13;;;;;;;1.33;1.17;;;;;;;19.82;69.62;102270.72;10431590;28;20444;-67
2023/09/25 12:11:38;;;;;;;2.05;1.20;;;;;;;19.90;69.43;102271.25;10427819;28;20049;-66
2023/09/25 12:17:00;;;;;;;2.22;1.15;;;;;;;19.98;67.68;102274.38;10425489;28;20033;-66
2023/09/25 12:22:22;;;;;;;2.60;1.08;;;;;;;20.00;68.33;102283.03;10431397;28;20048;-66
2023/09/25 12:27:45;;;;;;;2.50;1.20;;;;;;;20.01;66.47;102287.38;10419639;28;20049;-66
2023/09/25 12:33:07;;;;;;;2.10;1.20;;;;;;;20.03;68.10;102282.91;10426303;28;20049;-66
2023/09/25 12:38:29;;;;;;;3.95;1.23;;;;;;;20.20;66.69;102288.25;10430071;28;20128;-66
2023/09/25 12:43:51;;;;;;;4.15;1.55;;;;;;;20.21;66.17;102287.34;10437457;28;20045;-66
2023/09/25 12:49:13;;;;;;;5.53;1.38;;;;;;;20.26;66.52;102295.00;10434853;28;20254;-66
2023/09/25 12:54:35;;;;;;;1.90;1.20;;;;;;;20.27;65.91;102291.47;10424534;28;20048;-66
2023/09/25 12:59:56;;;;;;;1.77;1.00;;;;;;;20.33;64.99;102294.66;10423531;28;20041;-66
2023/09/25 13:05:20;;;;;;;4.40;1.20;;;;;;;20.41;62.51;102295.16;10427038;28;20060;-66
2023/09/25 13:10:42;;;;;;;1.23;1.00;;;;;;;20.42;64.09;102304.75;10438001;28;20044;-66
2023/09/25 13:16:04;;;;;;;2.65;1.15;;;;;;;20.48;65.97;102304.47;10423336;28;20048;-66
2023/09/25 13:21:29;;;;;;;2.42;1.10;;;;;;;20.48;67.43;102295.72;10425517;28;20055;-66
2023/09/25 13:26:51;;;;;;;3.75;1.20;;;;;;;20.53;66.84;102293.72;10436470;28;20084;-66
2023/09/25 13:32:13;;;;;;;3.40;1.25;;;;;;;20.59;65.02;102298.69;10436110;28;20125;-66
2023/09/25 13:37:35;;;;;;;1.95;1.15;;;;;;;20.59;64.42;102289.00;10431628;28;20045;-66
2023/09/25 13:42:56;;;;;;;3.80;1.40;;;;;;;20.56;65.19;102280.41;10436897;28;20057;-66
2023/09/25 13:48:18;;;;;;;1.58;1.15;;;;;;;20.55;63.27;102284.81;10425865;28;20497;-66
2023/09/25 13:53:40;;;;;;;2.05;1.10;;;;;;;20.56;66.36;102283.91;10424355;28;20052;-66
2023/09/25 13:59:02;;;;;;;2.63;1.23;;;;;;;20.61;65.08;102281.91;10421430;28;20389;-66
2023/09/25 14:04:23;;;;;;;4.57;1.50;;;;;;;20.68;65.83;102277.19;10422121;28;20147;-66
2023/09/25 14:09:47;;;;;;;1.85;1.33;;;;;;;20.64;65.77;102271.22;10425764;28;20051;-66
2023/09/25 14:15:12;;;;;;;6.65;1.15;;;;;;;20.68;66.60;102264.88;10436487;28;20139;-66
2023/09/25 14:20:34;;;;;;;4.10;1.23;;;;;;;20.74;65.14;102259.34;10425925;28;20072;-66
2023/09/25 14:25:58;;;;;;;2.15;1.33;;;;;;;20.76;65.76;102257.47;10421196;28;20041;-66
2023/09/25 14:31:20;;;;;;;2.88;1.40;;;;;;;20.72;64.01;102249.78;10426310;28;20049;-66
2023/09/25 14:36:42;;;;;;;4.20;1.17;;;;;;;20.75;66.69;102263.66;10431842;28;20051;-66
2023/09/25 14:42:05;;;;;;;1.98;1.20;;;;;;;20.71;66.66;102261.25;10426900;28;20049;-66
2023/09/25 14:47:27;;;;;;;1.98;1.38;;;;;;;20.70;66.78;102264.81;10419956;28;20128;-66
2023/09/25 14:52:51;;;;;;;1.38;1.00;;;;;;;20.69;65.92;102274.47;10409604;28;20516;-66
2023/09/25 14:58:13;;;;;;;3.60;1.30;;;;;;;20.77;62.54;102274.97;10437316;28;20045;-66
2023/09/25 15:03:34;;;;;;;2.15;1.15;;;;;;;20.86;63.00;102279.75;10433370;28;20060;-66
2023/09/25 15:08:56;;;;;;;3.30;1.23;;;;;;;20.93;64.18;102272.44;10423431;28;20059;-66
2023/09/25 15:14:20;;;;;;;2.22;1.48;;;;;;;21.00;65.83;102264.16;10432434;28;20053;-66
2023/09/25 15:19:44;;;;;;;38.53;3.45;;;;;;;21.16;61.41;102260.75;10439638;28;20045;-66
2023/09/25 15:25:06;;;;;;;1.50;1.02;;;;;;;21.14;63.64;102270.50;10423179;28;20595;-66
2023/09/25 15:30:28;;;;;;;3.72;1.23;;;;;;;21.11;64.61;102254.88;10437804;28;20048;-66
2023/09/25 15:35:49;;;;;;;3.78;1.05;;;;;;;21.11;65.30;102246.97;10437477;28;20045;-65
2023/09/25 15:41:11;;;;;;;2.80;1.40;;;;;;;21.38;64.58;102253.47;10422751;28;20052;-66
2023/09/25 15:46:33;;;;;;;5.90;1.40;;;;;;;21.59;63.54;102262.88;10420843;28;20122;-67
2023/09/25 15:51:55;;;;;;;2.55;1.25;;;;;;;21.81;62.43;102252.94;10430797;28;20056;-66
2023/09/25 15:57:19;;;;;;;4.47;1.60;;;;;;;21.86;63.99;102253.53;10449195;28;20465;-66
2023/09/25 16:02:41;;;;;;;6.07;1.27;;;;;;;21.90;62.38;102252.44;10432039;28;20072;-66
2023/09/25 16:08:03;;;;;;;2.55;1.30;;;;;;;21.67;62.73;102265.94;10442771;28;20178;-66
2023/09/25 16:13:25;;;;;;;2.28;1.23;;;;;;;21.38;64.71;102269.25;10442111;28;20057;-67
2023/09/25 16:18:47;;;;;;;3.25;1.38;;;;;;;21.17;64.70;102280.91;10428856;28;20060;-67
2023/09/25 16:24:09;;;;;;;2.17;1.20;;;;;;;20.98;66.08;102284.44;10429387;28;20059;-67
2023/09/25 16:29:31;;;;;;;2.42;1.30;;;;;;;20.83;66.61;102286.97;10435484;28;20499;-67
2023/09/25 16:34:52;;;;;;;4.15;1.33;;;;;;;20.63;67.54;102294.97;10432532;28;21039;-67
2023/09/25 16:40:14;;;;;;;2.60;1.27;;;;;;;20.51;67.26;102291.16;10427600;28;20481;-66
2023/09/25 16:45:37;;;;;;;2.80;1.30;;;;;;;20.37;68.08;102285.69;10431945;28;20411;-67
2023/09/25 16:50:59;;;;;;;2.22;1.52;;;;;;;20.20;68.92;102280.38;10442469;28;20103;-67
2023/09/25 16:56:21;;;;;;;3.13;1.52;;;;;;;20.06;68.14;102272.25;10427884;28;20040;-67
2023/09/25 17:01:43;;;;;;;3.35;1.38;;;;;;;19.96;69.11;102282.31;10425549;28;20060;-66
2023/09/25 17:07:06;;;;;;;2.90;1.33;;;;;;;19.82;70.33;102289.13;10427269;28;20057;-67
2023/09/25 17:12:27;;;;;;;3.47;1.48;;;;;;;19.70;70.53;102290.56;10441222;28;20048;-67
2023/09/25 17:17:49;;;;;;;3.17;1.45;;;;;;;19.52;70.86;102287.88;10425869;28;20132;-67
2023/09/25 17:23:11;;;;;;;3.05;1.60;;;;;;;19.38;70.07;102287.59;10430519;28;20148;-67
2023/09/25 17:28:33;;;;;;;2.38;1.45;;;;;;;19.24;71.46;102301.31;10438232;28;20056;-67
2023/09/25 17:33:54;;;;;;;2.63;1.50;;;;;;;19.13;71.36;102298.28;10422580;28;20072;-67
2023/09/25 17:39:17;;;;;;;3.70;1.60;;;;;;;19.02;72.02;102298.72;10424202;28;20048;-67
2023/09/25 17:44:39;;;;;;;2.13;1.50;;;;;;;18.89;72.13;102300.13;10428984;28;20380;-66
2023/09/25 17:50:01;;;;;;;3.17;1.60;;;;;;;18.77;72.64;102300.63;10426730;28;20045;-67
2023/09/25 17:55:22;;;;;;;2.45;1.60;;;;;;;18.67;72.46;102315.03;10430831;28;20125;-67
2023/09/25 18:00:44;;;;;;;3.13;1.67;;;;;;;18.58;72.90;102315.41;10426562;28;20045;-67
2023/09/25 18:06:06;;;;;;;3.55;1.70;;;;;;;18.46;73.43;102315.84;10422445;28;20045;-67
2023/09/25 18:11:29;;;;;;;5.40;1.88;;;;;;;18.37;73.75;102321.41;10428058;28;20049;-66
2023/09/25 18:16:51;;;;;;;4.30;2.10;;;;;;;18.27;73.85;102322.69;10424139;28;20519;-66
2023/09/25 18:22:13;;;;;;;5.95;2.10;;;;;;;18.19;74.08;102326.50;10426430;28;20096;-66
2023/09/25 18:27:37;;;;;;;4.30;2.00;;;;;;;18.11;74.51;102345.16;10415499;28;20059;-66
2023/09/25 18:33:00;;;;;;;2.70;1.73;;;;;;;18.04;75.10;102338.41;10418692;28;20597;-66
2023/09/25 18:38:22;;;;;;;2.33;1.90;;;;;;;17.94;75.12;102343.16;10440661;28;20493;-67
2023/09/25 18:43:44;;;;;;;4.25;1.80;;;;;;;17.87;75.02;102348.66;10440003;28;20128;-66
2023/09/25 18:49:05;;;;;;;6.15;2.10;;;;;;;17.78;76.04;102346.38;10424257;28;20056;-66
2023/09/25 18:54:27;;;;;;;5.20;2.53;;;;;;;17.73;75.63;102348.28;10422744;28;20501;-66
2023/09/25 18:59:49;;;;;;;4.00;2.42;;;;;;;17.64;75.18;102340.75;10425994;28;20072;-66
2023/09/25 19:05:10;;;;;;;6.22;2.97;;;;;;;17.56;76.00;102345.41;10422472;28;20098;-66
2023/09/25 19:10:32;;;;;;;6.32;3.15;;;;;;;17.46;76.20;102344.84;10422966;28;20617;-66
2023/09/25 19:15:55;;;;;;;4.75;2.88;;;;;;;17.43;76.29;102349.31;10423620;28;20111;-66
2023/09/25 19:21:17;;;;;;;5.28;2.92;;;;;;;17.33;76.91;102343.53;10423559;28;20111;-66
2023/09/25 19:26:38;;;;;;;8.18;3.53;;;;;;;17.24;76.86;102338.59;10451198;28;20119;-66
2023/09/25 19:32:00;;;;;;;4.90;3.17;;;;;;;17.17;77.01;102354.56;10445361;28;20045;-66
2023/09/25 19:37:22;;;;;;;7.45;3.65;;;;;;;17.12;77.56;102349.50;10451574;28;20109;-67
2023/09/25 19:42:44;;;;;;;5.40;3.13;;;;;;;17.06;77.97;102349.69;10480391;28;20053;-66
2023/09/25 19:48:05;;;;;;;7.80;3.60;;;;;;;17.02;78.00;102353.28;10443296;28;20049;-66
2023/09/25 19:53:30;;;;;;;4.80;3.17;;;;;;;16.97;78.32;102356.06;10436988;28;20072;-66
2023/09/25 19:58:52;;;;;;;6.20;3.42;;;;;;;16.89;78.63;102363.28;10430875;28;20040;-66
2023/09/25 20:04:14;;;;;;;6.07;3.28;;;;;;;16.80;78.71;102358.34;10423499;28;20582;-67
2023/09/25 20:09:35;;;;;;;4.15;2.97;;;;;;;16.76;79.08;102359.34;10429515;28;20049;-66
2023/09/25 20:14:57;;;;;;;6.82;3.35;;;;;;;16.69;79.48;102355.22;10445748;28;20056;-66
2023/09/25 20:20:19;;;;;;;5.72;2.80;;;;;;;16.62;79.99;102356.31;10432728;28;20044;-66
2023/09/25 20:25:40;;;;;;;4.55;2.90;;;;;;;16.53;80.07;102348.75;10430263;28;20055;-66
2023/09/25 20:31:02;;;;;;;7.57;2.80;;;;;;;16.51;80.26;102350.56;10440883;28;20372;-66
2023/09/25 20:36:24;;;;;;;7.63;3.13;;;;;;;16.46;80.47;102356.78;10430948;28;20061;-66
2023/09/25 20:41:46;;;;;;;11.93;3.47;;;;;;;16.39;80.30;102347.41;10418472;28;20521;-66
2023/09/25 20:47:07;;;;;;;5.43;3.30;;;;;;;16.34;79.67;102358.00;10432350;28;20045;-66
2023/09/25 20:52:29;;;;;;;7.18;3.00;;;;;;;16.29;80.41;102359.88;10433401;28;20049;-66
2023/09/25 20:57:52;;;;;;;6.72;3.50;;;;;;;16.24;80.00;102368.75;10442880;28;20048;-66
2023/09/25 21:03:15;;;;;;;9.18;4.00;;;;;;;16.19;80.48;102365.44;10443438;28;20048;-66
2023/09/25 21:08:37;;;;;;;6.43;3.30;;;;;;;16.14;80.08;102362.94;10424708;28;20057;-66
2023/09/25 21:13:58;;;;;;;8.75;3.63;;;;;;;16.06;80.35;102357.06;10424339;28;20053;-66
2023/09/25 21:19:20;;;;;;;5.30;3.72;;;;;;;16.00;80.81;102358.09;10430539;28;20052;-66
2023/09/25 21:24:41;;;;;;;5.80;3.47;;;;;;;15.89;81.94;102364.53;10424333;28;20131;-66
2023/09/25 21:30:04;;;;;;;6.95;3.65;;;;;;;15.85;81.84;102361.13;10443010;28;20047;-66
2023/09/25 21:35:25;;;;;;;6.93;3.72;;;;;;;15.79;82.20;102358.69;10422698;28;20060;-66
2023/09/25 21:40:47;;;;;;;7.20;3.22;;;;;;;15.75;82.61;102353.56;10429360;28;20052;-66
2023/09/25 21:46:09;;;;;;;12.73;3.67;;;;;;;15.71;82.50;102359.78;10428759;28;20051;-66
2023/09/25 21:51:30;;;;;;;6.85;3.42;;;;;;;15.65;82.63;102352.13;10439876;28;20053;-66
2023/09/25 21:56:52;;;;;;;7.63;3.90;;;;;;;15.59;82.52;102354.88;10438231;28;20055;-66
2023/09/25 22:02:14;;;;;;;8.90;3.53;;;;;;;15.51;83.16;102346.41;10427798;28;20133;-66
2023/09/25 22:07:35;;;;;;;7.82;3.90;;;;;;;15.48;83.32;102343.88;10442877;28;20110;-66
2023/09/25 22:12:58;;;;;;;4.80;3.55;;;;;;;15.37;84.11;102343.25;10423148;28;20053;-66
2023/09/25 22:18:19;;;;;;;8.85;3.53;;;;;;;15.31;83.87;102346.88;10440539;28;20123;-65
2023/09/25 22:23:42;;;;;;;9.57;3.33;;;;;;;15.21;84.26;102350.63;10441184;28;20055;-66
2023/09/25 22:29:05;;;;;;;6.72;3.70;;;;;;;15.19;84.75;102341.97;10427531;28;20048;-66
2023/09/25 22:34:26;;;;;;;4.43;3.47;;;;;;;15.11;84.53;102344.75;10440852;28;20049;-66
2023/09/25 22:39:48;;;;;;;6.95;3.90;;;;;;;15.04;85.04;102337.13;10441161;28;20036;-66
2023/09/25 22:45:10;;;;;;;6.93;4.00;;;;;;;14.93;85.38;102337.38;10427078;28;20044;-66
2023/09/25 22:50:31;;;;;;;4.03;3.63;;;;;;;14.87;85.96;102337.53;10424607;28;20056;-66
2023/09/25 22:55:53;;;;;;;5.18;3.67;;;;;;;14.88;86.12;102328.81;10424565;28;20056;-66
2023/09/25 23:01:19;;;;;;;5.80;3.50;;;;;;;14.82;86.27;102334.16;10431806;28;20064;-66
2023/09/25 23:06:41;;;;;;;5.75;3.63;;;;;;;14.81;86.21;102334.22;10449860;28;20080;-66
2023/09/25 23:12:03;;;;;;;8.30;4.25;;;;;;;14.81;85.67;102331.59;10471587;28;20414;-65
2023/09/25 23:17:24;;;;;;;6.82;3.78;;;;;;;14.74;85.73;102335.25;10428964;28;20045;-66
2023/09/25 23:22:51;;;;;;;5.05;3.80;;;;;;;14.60;85.87;102332.94;10449805;28;20069;-66
2023/09/25 23:28:13;;;;;;;8.82;3.75;;;;;;;14.56;86.39;102330.47;10429256;28;20072;-66
2023/09/25 23:33:35;;;;;;;5.07;3.75;;;;;;;14.47;87.12;102315.88;10447136;28;20080;-66
2023/09/25 23:38:56;;;;;;;5.65;4.43;;;;;;;14.55;86.73;102328.72;10431637;28;20049;-66
2023/09/25 23:44:18;;;;;;;4.50;3.28;;;;;;;14.44;86.89;102331.56;10432961;28;20037;-66
2023/09/25 23:49:39;;;;;;;5.97;3.95;;;;;;;14.41;87.46;102336.84;10432434;28;20049;-66
2023/09/25 23:55:02;;;;;;;6.78;3.90;;;;;;;14.39;86.25;102328.22;10429805;28;20045;-66
